PUX weather

El Mirador Airport
Puerto Varas, Los Lagos Region, Chile

Public forecast

Using degrees Celsius for public forecast. Weather courtesy of forecast.io.

Closest aviation weather report (METAR) to El Mirador Airport

Closest report is El Tepual Airport, 8.5 nm (15.8 km) SW. Retrieved 2019/10/21 18:00 UTC (2 hours ago):

SCTE 211800Z 25005KT 200V310 9999 BKN041 11/03 Q1028 NOSIG

Closest aviation forecast (TAF) to El Mirador Airport

Closest forecast is El Tepual Airport, 8.5 nm (15.8 km) SW. Retrieved 2019/10/21 18:00 UTC (2 hours ago):

TAF SCTE 211605Z 2118/2218 18010KT 9999 SCT030 BKN045 TX12/2118Z TN05/2212Z TEMPO 2218/2220 8000 -SHRA SCT020 BKN040 BECMG 2203/2205 17005KT SCT030 BECMG 2212/2214 18015KT BKN035 BECMG 2215/2217 CAVOK